Time;durP1;ratioP1;P1;durP2;ratioP2;P2;SDS_P1;SDS_P2;PMS_P1;PMS_P2;Temp;Humidity;BMP_temperature;BMP_pressure;BME280_temperature;BME280_humidity;BME280_pressure;Samples;Min_cycle;Max_cycle;Signal;HPM_P1;HPM_P2
2021/05/28 00:00:31;;;;;;;2.80;1.17;;;19.70;49.90;;;;;;5126461;28;20356;-69
2021/05/28 00:02:56;;;;;;;5.45;1.35;;;19.70;50.00;;;;;;5128287;28;20019;-63
2021/05/28 00:05:22;;;;;;;3.35;1.15;;;19.60;49.90;;;;;;5125772;28;20524;-63
2021/05/28 00:07:48;;;;;;;3.72;1.30;;;19.60;49.90;;;;;;5125127;28;20023;-63
2021/05/28 00:10:14;;;;;;;3.65;1.48;;;19.70;49.80;;;;;;5126252;28;20032;-63
2021/05/28 00:12:40;;;;;;;3.80;1.45;;;19.70;49.90;;;;;;5115182;28;20019;-63
2021/05/28 00:15:09;;;;;;;6.00;1.65;;;19.60;49.80;;;;;;5115150;28;20471;-63
2021/05/28 00:17:35;;;;;;;4.13;1.55;;;19.60;49.90;;;;;;5113463;28;20475;-63
2021/05/28 00:20:01;;;;;;;2.90;1.25;;;19.60;49.80;;;;;;5114822;28;20058;-62
2021/05/28 00:22:27;;;;;;;3.33;1.23;;;19.60;49.80;;;;;;5114886;28;20048;-62
2021/05/28 00:24:53;;;;;;;4.80;1.40;;;19.60;49.80;;;;;;5114701;28;20020;-63
2021/05/28 00:27:18;;;;;;;3.92;1.58;;;19.60;49.80;;;;;;5114983;28;20098;-63
2021/05/28 00:29:44;;;;;;;4.22;1.13;;;19.60;49.80;;;;;;5114951;28;20486;-62
2021/05/28 00:32:09;;;;;;;4.68;1.50;;;19.60;49.80;;;;;;5114541;28;20028;-63
2021/05/28 00:34:35;;;;;;;3.65;1.40;;;19.60;49.80;;;;;;5114649;28;20425;-62
2021/05/28 00:37:01;;;;;;;3.47;1.50;;;19.60;49.80;;;;;;5114871;28;20016;-62
2021/05/28 00:39:26;;;;;;;4.80;1.50;;;19.60;49.80;;;;;;5114348;28;20020;-62
2021/05/28 00:41:52;;;;;;;4.07;1.48;;;19.60;49.80;;;;;;5114271;28;20020;-63
2021/05/28 00:44:23;;;;;;;4.53;1.50;;;19.60;49.80;;;;;;5114406;28;20031;-62
2021/05/28 00:46:48;;;;;;;4.45;1.60;;;19.60;49.70;;;;;;5114609;28;20019;-62
2021/05/28 00:49:14;;;;;;;3.75;1.52;;;19.60;49.70;;;;;;5114806;28;20597;-62
2021/05/28 00:51:39;;;;;;;2.97;1.30;;;19.60;49.80;;;;;;5114624;28;20031;-63
2021/05/28 00:54:05;;;;;;;3.55;1.45;;;19.60;49.80;;;;;;5114395;28;20020;-63
2021/05/28 00:56:31;;;;;;;3.45;1.67;;;19.60;49.80;;;;;;5114418;28;20080;-63
2021/05/28 00:59:02;;;;;;;3.25;1.40;;;19.60;49.80;;;;;;5114066;28;20034;-64
2021/05/28 01:01:28;;;;;;;4.63;1.98;;;19.60;49.80;;;;;;5114311;28;20020;-64
2021/05/28 01:03:54;;;;;;;4.75;1.70;;;19.50;49.70;;;;;;5114037;28;20103;-63
2021/05/28 01:06:19;;;;;;;5.05;1.48;;;19.60;49.80;;;;;;5112898;28;20485;-64
2021/05/28 01:08:45;;;;;;;4.00;1.67;;;19.60;49.80;;;;;;5113994;28;20028;-63
2021/05/28 01:11:11;;;;;;;4.90;1.80;;;19.50;49.80;;;;;;5114439;28;20110;-63
2021/05/28 01:13:36;;;;;;;4.60;1.73;;;19.50;49.80;;;;;;5114392;28;20495;-63
2021/05/28 01:16:02;;;;;;;4.15;1.42;;;19.50;49.80;;;;;;5114001;28;20066;-62
2021/05/28 01:18:28;;;;;;;3.40;1.50;;;19.60;49.80;;;;;;5114275;28;20019;-62
2021/05/28 01:20:53;;;;;;;3.45;1.60;;;19.50;49.80;;;;;;5114045;28;20024;-62
2021/05/28 01:23:19;;;;;;;4.55;1.73;;;19.50;49.70;;;;;;5113502;28;20039;-63
2021/05/28 01:25:46;;;;;;;5.28;1.80;;;19.50;49.70;;;;;;5114139;28;20054;-63
2021/05/28 01:28:11;;;;;;;4.38;1.67;;;19.50;49.80;;;;;;5113898;28;20031;-62
2021/05/28 01:30:37;;;;;;;5.93;1.95;;;19.50;49.80;;;;;;5113836;28;20030;-65
2021/05/28 01:33:03;;;;;;;3.78;1.50;;;19.50;49.80;;;;;;5113806;28;20030;-63
2021/05/28 01:35:29;;;;;;;4.38;2.05;;;19.50;49.70;;;;;;5113898;28;20024;-63
2021/05/28 01:37:54;;;;;;;5.05;1.92;;;19.50;49.80;;;;;;5114048;28;20027;-64
2021/05/28 01:40:21;;;;;;;5.53;1.50;;;19.50;49.80;;;;;;5113658;28;20032;-64
2021/05/28 01:42:47;;;;;;;4.32;1.58;;;19.50;49.80;;;;;;5113800;28;20103;-63
2021/05/28 01:45:13;;;;;;;5.10;1.92;;;19.50;49.80;;;;;;5113688;28;20028;-64
2021/05/28 01:47:39;;;;;;;4.25;1.65;;;19.50;49.80;;;;;;5113776;28;20028;-63
2021/05/28 01:50:08;;;;;;;3.83;1.73;;;19.50;49.80;;;;;;5113655;28;20077;-64
2021/05/28 01:52:33;;;;;;;4.82;1.83;;;19.50;49.80;;;;;;5117476;28;20055;-64
2021/05/28 01:54:59;;;;;;;4.82;2.00;;;19.50;49.80;;;;;;5117727;28;20066;-63
2021/05/28 01:57:25;;;;;;;4.78;2.00;;;19.50;49.80;;;;;;5117348;28;20020;-63
2021/05/28 01:59:50;;;;;;;4.97;2.05;;;19.50;49.80;;;;;;5117725;28;20501;-63
2021/05/28 02:02:16;;;;;;;4.15;1.92;;;19.50;49.80;;;;;;5117415;28;20031;-63
2021/05/28 02:04:42;;;;;;;5.80;1.90;;;19.50;49.80;;;;;;5118017;28;20039;-63
2021/05/28 02:07:08;;;;;;;5.72;2.20;;;19.50;49.80;;;;;;5117483;28;20394;-63
2021/05/28 02:09:34;;;;;;;4.90;2.00;;;19.50;49.80;;;;;;5117452;28;20024;-63
2021/05/28 02:12:00;;;;;;;4.20;2.03;;;19.40;49.80;;;;;;5117387;27;20472;-63
2021/05/28 02:14:29;;;;;;;4.60;2.33;;;19.40;49.90;;;;;;5117371;28;20031;-63
2021/05/28 02:16:55;;;;;;;5.30;2.17;;;19.50;49.90;;;;;;5117575;28;20094;-63
2021/05/28 02:19:21;;;;;;;5.22;2.05;;;19.40;49.80;;;;;;5117534;28;20031;-64
2021/05/28 02:21:48;;;;;;;5.57;2.50;;;19.40;49.90;;;;;;5116984;28;20483;-63
2021/05/28 02:24:15;;;;;;;5.97;2.22;;;19.40;49.80;;;;;;5118032;28;20063;-64
2021/05/28 02:26:45;;;;;;;4.85;2.42;;;19.40;49.80;;;;;;5117274;28;20081;-63
2021/05/28 02:29:12;;;;;;;4.65;2.20;;;19.40;49.80;;;;;;5117379;28;20383;-64
2021/05/28 02:31:38;;;;;;;4.72;2.00;;;19.40;49.80;;;;;;5117085;28;20022;-63
2021/05/28 02:34:04;;;;;;;4.25;1.90;;;19.40;49.90;;;;;;5117095;28;20059;-64
2021/05/28 02:36:31;;;;;;;4.30;2.10;;;19.40;49.80;;;;;;5117291;28;20024;-64
2021/05/28 02:38:56;;;;;;;4.90;2.00;;;19.40;49.90;;;;;;5117072;28;20028;-64
2021/05/28 02:41:22;;;;;;;4.47;2.10;;;19.40;49.80;;;;;;5116474;28;20016;-64
2021/05/28 02:43:47;;;;;;;4.28;2.00;;;19.40;49.80;;;;;;5116792;28;20028;-64
2021/05/28 02:46:13;;;;;;;5.95;2.22;;;19.40;49.80;;;;;;5116914;28;20511;-64
2021/05/28 02:48:38;;;;;;;5.50;2.50;;;19.30;49.80;;;;;;5116843;28;20427;-64
2021/05/28 02:51:04;;;;;;;4.72;2.10;;;19.30;49.80;;;;;;5116533;28;20062;-64
2021/05/28 02:53:34;;;;;;;5.63;2.25;;;19.30;49.80;;;;;;5116645;28;20111;-64
2021/05/28 02:56:01;;;;;;;4.28;2.00;;;19.30;49.80;;;;;;5116865;28;20027;-64
2021/05/28 02:58:26;;;;;;;8.30;2.30;;;19.40;49.80;;;;;;5115213;28;20073;-63
2021/05/28 03:00:52;;;;;;;5.03;2.63;;;19.30;49.80;;;;;;5116375;28;20479;-64
2021/05/28 03:03:18;;;;;;;6.60;2.33;;;19.30;49.70;;;;;;5115945;28;20019;-63
2021/05/28 03:05:43;;;;;;;4.90;2.35;;;19.40;49.80;;;;;;5116539;28;20403;-63
2021/05/28 03:08:09;;;;;;;5.82;2.35;;;19.30;49.80;;;;;;5116436;28;20024;-63
2021/05/28 03:10:34;;;;;;;4.32;2.20;;;19.30;49.70;;;;;;5116312;28;20102;-63
2021/05/28 03:13:00;;;;;;;4.68;2.28;;;19.30;49.70;;;;;;5116353;28;20016;-64
2021/05/28 03:15:25;;;;;;;5.38;2.40;;;19.30;49.70;;;;;;5116574;28;20055;-64
2021/05/28 03:17:52;;;;;;;4.43;2.10;;;19.30;49.70;;;;;;5116133;28;20015;-63
2021/05/28 03:20:25;;;;;;;5.63;2.35;;;19.30;49.70;;;;;;5115933;28;20045;-64
2021/05/28 03:22:50;;;;;;;7.78;2.67;;;19.30;49.70;;;;;;5115607;28;20047;-64
2021/05/28 03:25:17;;;;;;;4.40;2.13;;;19.30;49.70;;;;;;5115998;28;20424;-63
2021/05/28 03:27:43;;;;;;;4.65;2.45;;;19.30;49.70;;;;;;5115809;28;20057;-64
2021/05/28 03:30:11;;;;;;;4.68;2.00;;;19.20;49.70;;;;;;5115563;28;20028;-63
2021/05/28 03:32:37;;;;;;;4.45;2.08;;;19.30;49.70;;;;;;5115492;28;20020;-64
2021/05/28 03:35:04;;;;;;;5.80;2.67;;;19.30;49.70;;;;;;5116425;28;20035;-64
2021/05/28 03:37:30;;;;;;;5.22;2.60;;;19.30;49.60;;;;;;5115869;28;20425;-63
2021/05/28 03:39:56;;;;;;;6.32;2.30;;;19.30;49.60;;;;;;5115851;28;20047;-64
2021/05/28 03:42:22;;;;;;;5.28;2.65;;;19.30;49.70;;;;;;5115378;28;20059;-63
2021/05/28 03:44:47;;;;;;;4.50;2.28;;;19.30;49.70;;;;;;5115633;28;20070;-64
2021/05/28 03:47:15;;;;;;;5.50;2.80;;;19.30;49.60;;;;;;5115839;28;20095;-63
2021/05/28 03:49:41;;;;;;;6.13;2.78;;;19.30;49.60;;;;;;5115485;28;20089;-64
2021/05/28 03:52:10;;;;;;;6.70;2.50;;;19.30;49.60;;;;;;5115325;28;20024;-64
2021/05/28 03:54:35;;;;;;;5.57;2.30;;;19.30;49.60;;;;;;5115709;28;20039;-64
2021/05/28 03:57:01;;;;;;;5.75;2.55;;;19.30;49.60;;;;;;5115519;28;20031;-63
2021/05/28 03:59:26;;;;;;;4.75;2.20;;;19.30;49.60;;;;;;5113948;28;20053;-64
2021/05/28 04:01:52;;;;;;;5.53;2.65;;;19.30;49.60;;;;;;5114961;28;20020;-63
2021/05/28 04:04:17;;;;;;;5.07;2.63;;;19.30;49.60;;;;;;5115330;28;20357;-63
2021/05/28 04:06:43;;;;;;;5.50;2.72;;;19.20;49.60;;;;;;5113885;28;20528;-63
2021/05/28 04:09:08;;;;;;;5.80;2.63;;;19.30;49.60;;;;;;5115195;28;20066;-63
2021/05/28 04:11:34;;;;;;;7.13;3.20;;;19.30;49.60;;;;;;5115284;28;20020;-63
2021/05/28 04:13:59;;;;;;;5.30;2.53;;;19.30;49.50;;;;;;5114724;28;20028;-64
2021/05/28 04:16:25;;;;;;;6.00;2.65;;;19.30;49.50;;;;;;5114674;28;20518;-64
2021/05/28 04:18:50;;;;;;;7.43;3.55;;;19.30;49.50;;;;;;5115033;28;20023;-63
2021/05/28 04:21:16;;;;;;;7.35;3.03;;;19.30;49.50;;;;;;5114675;28;20103;-64
2021/05/28 04:23:41;;;;;;;10.32;3.35;;;19.30;49.40;;;;;;5114732;28;20381;-64
2021/05/28 04:26:07;;;;;;;6.65;2.80;;;19.30;49.40;;;;;;5113613;28;20019;-64
2021/05/28 04:28:32;;;;;;;6.97;3.15;;;19.30;49.40;;;;;;5114741;28;20031;-64
2021/05/28 04:30:58;;;;;;;7.93;3.47;;;19.30;49.40;;;;;;5114692;28;20035;-64
2021/05/28 04:33:24;;;;;;;7.68;3.40;;;19.30;49.40;;;;;;5115173;28;20047;-64
2021/05/28 04:35:51;;;;;;;8.45;3.65;;;19.30;49.40;;;;;;5114521;28;20023;-64
2021/05/28 04:38:17;;;;;;;11.30;3.78;;;19.30;49.40;;;;;;5114313;28;20028;-64
2021/05/28 04:40:43;;;;;;;7.63;3.47;;;19.30;49.40;;;;;;5114617;28;20371;-64
2021/05/28 04:43:09;;;;;;;8.02;3.90;;;19.30;49.40;;;;;;5114611;28;20028;-64
2021/05/28 04:45:35;;;;;;;7.55;3.67;;;19.30;49.40;;;;;;5114562;28;20019;-64
2021/05/28 04:48:01;;;;;;;6.53;3.33;;;19.30;49.40;;;;;;5114612;28;20038;-64
2021/05/28 04:50:33;;;;;;;8.32;4.00;;;19.40;49.40;;;;;;5114135;28;20024;-63
2021/05/28 04:53:03;;;;;;;9.13;4.00;;;19.40;49.30;;;;;;5114305;28;20475;-64
2021/05/28 04:55:28;;;;;;;8.27;3.85;;;19.30;49.30;;;;;;5114841;28;20026;-63
2021/05/28 04:57:54;;;;;;;8.02;3.67;;;19.40;49.30;;;;;;5114115;28;20095;-64
2021/05/28 05:00:22;;;;;;;8.48;4.00;;;19.40;49.30;;;;;;5114087;28;20028;-64
2021/05/28 05:02:48;;;;;;;7.55;3.83;;;19.40;49.30;;;;;;5114334;28;20364;-64
2021/05/28 05:05:15;;;;;;;8.30;4.10;;;19.40;49.30;;;;;;5114300;28;20020;-64
2021/05/28 05:07:40;;;;;;;7.68;4.18;;;19.40;49.30;;;;;;5113947;28;20417;-64
2021/05/28 05:10:07;;;;;;;8.00;3.90;;;19.40;49.30;;;;;;5114102;28;20028;-63
2021/05/28 05:12:33;;;;;;;8.27;3.67;;;19.40;49.30;;;;;;5113934;28;20024;-63
2021/05/28 05:14:59;;;;;;;8.05;4.07;;;19.40;49.30;;;;;;5114084;28;20035;-64
2021/05/28 05:17:25;;;;;;;8.90;3.83;;;19.40;49.20;;;;;;5114080;28;20019;-64
2021/05/28 05:19:50;;;;;;;8.45;3.97;;;19.40;49.20;;;;;;5113576;28;20137;-64
2021/05/28 05:22:16;;;;;;;9.52;4.47;;;19.40;49.20;;;;;;5113770;28;20043;-63
2021/05/28 05:24:42;;;;;;;8.65;4.25;;;19.40;49.20;;;;;;5114110;28;20027;-64
2021/05/28 05:27:07;;;;;;;7.90;3.78;;;19.50;49.20;;;;;;5113356;28;20015;-64
2021/05/28 05:29:33;;;;;;;10.50;4.50;;;19.40;49.20;;;;;;5113792;28;20039;-64
2021/05/28 05:31:59;;;;;;;9.43;4.72;;;19.50;49.20;;;;;;5113678;28;20019;-64
2021/05/28 05:34:24;;;;;;;8.25;4.55;;;19.50;49.20;;;;;;5114015;28;20020;-63
2021/05/28 05:36:50;;;;;;;8.48;4.28;;;19.40;49.20;;;;;;5112441;28;20345;-64
2021/05/28 05:39:15;;;;;;;8.82;4.75;;;19.50;49.10;;;;;;5113591;28;20495;-63
2021/05/28 05:41:41;;;;;;;7.10;3.80;;;19.50;49.20;;;;;;5113936;28;20024;-65
2021/05/28 05:44:07;;;;;;;8.35;4.43;;;19.50;49.10;;;;;;5113401;28;20028;-64
2021/05/28 05:46:32;;;;;;;10.85;4.70;;;19.50;49.10;;;;;;5113212;28;20110;-63
2021/05/28 05:48:58;;;;;;;9.13;4.40;;;19.50;49.10;;;;;;5113374;28;20128;-64
2021/05/28 05:51:23;;;;;;;9.05;4.50;;;19.50;49.10;;;;;;5114041;28;20027;-63
2021/05/28 05:53:49;;;;;;;9.30;5.03;;;19.50;49.10;;;;;;5113919;28;20031;-62
2021/05/28 05:56:15;;;;;;;9.63;4.68;;;19.50;49.10;;;;;;5113675;28;20023;-62
2021/05/28 05:58:41;;;;;;;8.40;4.15;;;19.50;49.10;;;;;;5113425;28;20032;-64
2021/05/28 06:01:07;;;;;;;8.85;4.40;;;19.50;49.00;;;;;;5113546;28;20046;-64
2021/05/28 06:03:33;;;;;;;9.38;4.47;;;19.50;49.00;;;;;;5113450;28;20057;-62
2021/05/28 06:05:58;;;;;;;8.85;4.30;;;19.50;49.00;;;;;;5113781;28;20131;-63
2021/05/28 06:08:24;;;;;;;8.77;4.53;;;19.50;49.00;;;;;;5113309;28;20034;-64
2021/05/28 06:10:50;;;;;;;8.98;4.68;;;19.50;49.00;;;;;;5113462;28;20020;-62
2021/05/28 06:13:15;;;;;;;8.65;4.40;;;19.50;49.00;;;;;;5113372;28;20049;-62
2021/05/28 06:15:41;;;;;;;8.65;4.65;;;19.50;49.00;;;;;;5113694;28;20416;-63
2021/05/28 06:18:06;;;;;;;8.73;4.43;;;19.50;49.00;;;;;;5113649;28;20427;-62
2021/05/28 06:20:32;;;;;;;9.93;5.15;;;19.50;49.00;;;;;;5114038;28;20019;-62
2021/05/28 06:22:58;;;;;;;9.85;5.18;;;19.60;48.90;;;;;;5113266;28;20045;-62
2021/05/28 06:25:24;;;;;;;12.23;5.63;;;19.60;49.00;;;;;;5084079;28;20031;-61
2021/05/28 06:27:50;;;;;;;11.95;5.45;;;19.50;49.10;;;;;;5084370;28;20115;-62
2021/05/28 06:30:16;;;;;;;11.15;5.60;;;19.50;49.00;;;;;;5082880;28;20043;-62
2021/05/28 06:32:41;;;;;;;11.52;5.75;;;19.60;49.00;;;;;;5084320;28;20097;-62
2021/05/28 06:35:07;;;;;;;10.02;5.35;;;19.60;48.90;;;;;;5081850;28;20064;-61
2021/05/28 06:37:33;;;;;;;12.30;6.28;;;19.60;48.90;;;;;;5081841;28;20047;-61
2021/05/28 06:39:58;;;;;;;9.52;5.25;;;19.50;49.10;;;;;;5097103;28;20036;-59
2021/05/28 06:42:24;;;;;;;11.65;5.30;;;19.50;49.30;;;;;;5096052;28;20032;-61
2021/05/28 06:44:49;;;;;;;10.82;5.72;;;19.50;49.20;;;;;;5085647;28;20082;-60
2021/05/28 06:47:17;;;;;;;11.10;5.55;;;19.50;49.00;;;;;;5075127;28;20024;-60
2021/05/28 06:49:43;;;;;;;25.23;14.57;;;19.60;49.00;;;;;;5075298;28;20036;-60
2021/05/28 06:52:09;;;;;;;24.00;14.10;;;19.30;48.50;;;;;;5075953;28;20024;-60
2021/05/28 06:54:36;;;;;;;18.27;10.15;;;19.00;49.80;;;;;;5095005;28;20032;-60
2021/05/28 06:57:03;;;;;;;12.18;6.68;;;19.20;49.50;;;;;;5096263;28;20083;-60
2021/05/28 06:59:30;;;;;;;11.98;6.70;;;19.40;49.30;;;;;;5095585;28;20031;-60
2021/05/28 07:01:55;;;;;;;15.25;7.18;;;19.50;49.10;;;;;;5095321;28;20501;-60
2021/05/28 07:04:22;;;;;;;12.90;7.20;;;19.50;49.00;;;;;;5095280;28;20099;-60
2021/05/28 07:06:47;;;;;;;12.55;6.70;;;19.50;49.00;;;;;;5095351;28;20103;-61
2021/05/28 07:09:13;;;;;;;13.32;6.53;;;19.60;49.00;;;;;;5094618;28;20040;-60
2021/05/28 07:11:38;;;;;;;12.45;6.65;;;19.60;48.90;;;;;;5095044;28;20049;-60
2021/05/28 07:14:04;;;;;;;12.55;6.65;;;19.60;48.90;;;;;;5095041;28;20115;-59
2021/05/28 07:16:30;;;;;;;12.90;6.70;;;19.60;48.90;;;;;;5094773;28;20024;-60
2021/05/28 07:18:56;;;;;;;14.75;6.43;;;19.60;48.90;;;;;;5094327;28;20032;-60
2021/05/28 07:21:25;;;;;;;12.80;6.13;;;19.60;48.90;;;;;;5084386;28;20024;-62
2021/05/28 07:23:51;;;;;;;12.70;6.93;;;19.70;48.90;;;;;;5074272;28;20059;-61
2021/05/28 07:26:16;;;;;;;11.30;6.28;;;19.70;48.80;;;;;;5091778;28;20024;-61
2021/05/28 07:28:42;;;;;;;13.38;7.03;;;19.70;48.80;;;;;;5094982;28;20046;-61
2021/05/28 07:31:08;;;;;;;11.10;5.70;;;19.70;48.80;;;;;;5094956;28;20024;-61
2021/05/28 07:33:33;;;;;;;12.13;7.32;;;19.70;48.80;;;;;;5094361;28;20468;-61
2021/05/28 07:35:59;;;;;;;11.00;6.30;;;19.70;48.80;;;;;;5094747;28;20073;-62
2021/05/28 07:38:24;;;;;;;10.93;5.50;;;19.70;48.90;;;;;;5094498;28;20031;-62
2021/05/28 07:40:50;;;;;;;12.30;6.88;;;19.70;48.90;;;;;;5094352;28;20442;-62
2021/05/28 07:43:15;;;;;;;11.65;6.45;;;19.70;48.80;;;;;;5094057;28;20101;-62
2021/05/28 07:45:41;;;;;;;10.98;6.38;;;19.70;48.90;;;;;;5094308;28;20028;-62
2021/05/28 07:48:07;;;;;;;10.85;6.35;;;19.70;48.80;;;;;;5094238;28;20475;-63
2021/05/28 07:50:45;;;;;;;12.60;6.93;;;19.70;48.70;;;;;;5094032;28;20031;-62
2021/05/28 07:53:19;;;;;;;12.10;6.72;;;19.80;48.70;;;;;;5094841;28;20032;-63
2021/05/28 07:55:44;;;;;;;10.75;6.20;;;19.80;48.70;;;;;;5083610;28;20086;-62
2021/05/28 07:58:10;;;;;;;10.65;6.13;;;19.80;48.70;;;;;;5072264;28;20036;-62
2021/05/28 08:00:36;;;;;;;11.70;6.40;;;19.80;48.70;;;;;;5074111;28;20464;-62
2021/05/28 08:03:02;;;;;;;13.20;6.63;;;19.90;48.70;;;;;;5073824;28;20479;-62
2021/05/28 08:05:28;;;;;;;12.38;6.65;;;19.90;48.70;;;;;;5072361;28;20509;-62
2021/05/28 08:07:55;;;;;;;12.55;6.68;;;19.90;48.60;;;;;;5073861;28;20036;-62
2021/05/28 08:10:22;;;;;;;9.57;5.70;;;19.90;48.60;;;;;;5081283;28;20118;-62
2021/05/28 08:12:48;;;;;;;11.13;6.25;;;19.90;48.60;;;;;;5093985;28;20519;-62
2021/05/28 08:15:14;;;;;;;12.50;6.82;;;19.90;48.60;;;;;;5074041;28;20025;-62
2021/05/28 08:17:40;;;;;;;12.93;6.63;;;20.00;48.50;;;;;;5073312;28;20040;-62
2021/05/28 08:20:06;;;;;;;11.18;5.70;;;20.00;48.50;;;;;;5073658;28;20020;-62
2021/05/28 08:22:32;;;;;;;9.15;5.40;;;20.00;48.50;;;;;;5073783;28;20441;-62
2021/05/28 08:24:57;;;;;;;11.48;6.45;;;20.00;48.40;;;;;;5073948;28;20078;-62
2021/05/28 08:27:23;;;;;;;12.43;6.43;;;20.00;48.40;;;;;;5073125;28;20040;-61
2021/05/28 08:29:48;;;;;;;11.88;6.72;;;20.00;48.40;;;;;;5072715;28;20094;-62
2021/05/28 08:32:15;;;;;;;11.27;6.45;;;20.00;48.30;;;;;;5073001;28;20070;-61
2021/05/28 08:34:41;;;;;;;10.52;5.80;;;20.00;48.40;;;;;;5072701;28;20380;-61
2021/05/28 08:37:06;;;;;;;10.95;6.55;;;20.10;48.30;;;;;;5073554;28;20017;-60
2021/05/28 08:39:32;;;;;;;11.95;6.18;;;20.10;48.20;;;;;;5083023;28;20056;-61
2021/05/28 08:41:59;;;;;;;11.95;6.45;;;20.10;48.30;;;;;;5074161;28;20021;-61
2021/05/28 08:44:25;;;;;;;12.70;6.15;;;20.10;48.30;;;;;;5077222;28;20027;-61
2021/05/28 08:46:52;;;;;;;10.77;6.28;;;20.10;48.20;;;;;;5093072;28;20020;-61
2021/05/28 08:49:19;;;;;;;12.20;6.30;;;20.10;48.20;;;;;;5093883;28;20035;-61
2021/05/28 08:51:44;;;;;;;10.55;5.78;;;20.10;48.20;;;;;;5093925;28;20020;-61
2021/05/28 08:54:10;;;;;;;9.95;5.88;;;20.20;48.20;;;;;;5093668;28;20573;-62
2021/05/28 08:56:35;;;;;;;11.55;6.57;;;20.20;48.10;;;;;;5093607;28;20095;-62
2021/05/28 08:59:04;;;;;;;12.88;6.07;;;20.20;48.20;;;;;;5093355;28;20479;-61
2021/05/28 09:01:30;;;;;;;11.55;6.18;;;20.20;48.20;;;;;;5074220;28;20028;-61
2021/05/28 09:04:00;;;;;;;11.45;5.65;;;20.20;48.20;;;;;;5072344;28;20413;-61
2021/05/28 09:06:37;;;;;;;11.50;6.10;;;20.20;48.20;;;;;;5071136;28;20052;-61
2021/05/28 09:09:17;;;;;;;12.02;6.32;;;20.20;48.20;;;;;;5071963;28;20036;-61
2021/05/28 09:12:10;;;;;;;10.70;6.15;;;20.20;48.20;;;;;;5081369;28;20085;-61
2021/05/28 09:14:35;;;;;;;10.90;5.88;;;20.20;48.10;;;;;;5090155;28;20115;-61
2021/05/28 09:17:02;;;;;;;11.80;6.20;;;20.20;48.20;;;;;;5092884;28;20109;-61
2021/05/28 09:19:29;;;;;;;10.80;5.88;;;20.20;48.20;;;;;;5093500;28;20024;-61
2021/05/28 09:22:14;;;;;;;10.43;6.35;;;20.20;48.20;;;;;;5093226;28;20032;-62
2021/05/28 09:24:41;;;;;;;9.60;5.45;;;20.20;48.20;;;;;;5093433;28;20040;-61
2021/05/28 09:27:28;;;;;;;10.73;6.45;;;20.20;48.20;;;;;;5093354;28;20020;-61
2021/05/28 09:29:59;;;;;;;10.60;5.82;;;20.20;48.20;;;;;;5093814;28;20031;-61
2021/05/28 09:32:26;;;;;;;10.18;5.85;;;20.20;48.20;;;;;;5093211;28;20081;-61
2021/05/28 09:34:52;;;;;;;10.15;5.40;;;20.30;48.20;;;;;;5093445;28;20103;-61
2021/05/28 09:37:17;;;;;;;11.43;5.97;;;20.30;48.20;;;;;;5092796;28;20051;-62
2021/05/28 09:39:43;;;;;;;11.80;6.00;;;20.30;48.20;;;;;;5092642;28;20472;-61
2021/05/28 09:42:09;;;;;;;11.20;6.53;;;20.30;48.10;;;;;;5092502;28;20070;-61
2021/05/28 09:44:34;;;;;;;10.02;6.05;;;20.30;48.10;;;;;;5092584;28;20506;-62
2021/05/28 09:47:14;;;;;;;10.57;5.88;;;20.30;48.10;;;;;;5092424;28;20044;-62
2021/05/28 09:49:42;;;;;;;9.60;5.68;;;20.30;48.10;;;;;;5092314;28;20391;-62
2021/05/28 09:52:13;;;;;;;10.02;6.03;;;20.30;48.10;;;;;;5085925;28;20078;-61
2021/05/28 09:54:57;;;;;;;10.10;5.38;;;20.40;48.10;;;;;;5092503;28;20063;-62
2021/05/28 09:57:31;;;;;;;10.67;6.37;;;20.40;48.10;;;;;;5092449;28;20021;-61
2021/05/28 09:59:57;;;;;;;14.18;6.65;;;20.30;48.10;;;;;;5091086;28;20020;-61
2021/05/28 10:02:32;;;;;;;9.40;5.78;;;20.30;48.10;;;;;;5091975;28;20055;-61
2021/05/28 10:04:59;;;;;;;9.38;5.35;;;20.40;48.10;;;;;;5090918;28;20055;-61
2021/05/28 10:07:25;;;;;;;9.85;5.68;;;20.40;48.00;;;;;;5092150;28;20021;-61
2021/05/28 10:09:53;;;;;;;10.05;6.00;;;20.40;48.00;;;;;;5090900;28;20070;-61
2021/05/28 10:12:19;;;;;;;8.77;4.72;;;20.40;47.90;;;;;;5090852;28;20024;-61
2021/05/28 10:14:45;;;;;;;10.07;5.65;;;20.40;48.00;;;;;;5096149;28;20533;-61
2021/05/28 10:17:11;;;;;;;8.90;5.65;;;20.50;47.90;;;;;;5096305;28;20024;-62
2021/05/28 10:19:37;;;;;;;9.20;5.13;;;20.50;47.90;;;;;;5096267;28;20021;-61
2021/05/28 10:22:03;;;;;;;10.93;5.72;;;20.50;47.90;;;;;;5095946;28;20082;-60
2021/05/28 10:24:30;;;;;;;9.05;4.75;;;20.50;47.90;;;;;;5096425;28;20028;-61
2021/05/28 10:26:55;;;;;;;8.88;5.57;;;20.50;47.90;;;;;;5096140;28;20067;-62
2021/05/28 10:29:29;;;;;;;9.70;5.75;;;20.50;47.80;;;;;;5096131;28;20483;-61
2021/05/28 10:31:59;;;;;;;10.30;5.67;;;20.50;47.80;;;;;;5097043;28;20039;-61
2021/05/28 10:34:27;;;;;;;10.30;5.63;;;20.50;47.80;;;;;;5096821;28;20346;-62
2021/05/28 10:36:54;;;;;;;8.60;4.72;;;20.50;47.70;;;;;;5096704;28;20055;-62
2021/05/28 10:39:20;;;;;;;9.13;5.30;;;20.50;47.70;;;;;;5096012;28;20036;-62
2021/05/28 10:41:55;;;;;;;9.48;5.40;;;20.50;47.70;;;;;;5096473;28;20035;-62
2021/05/28 10:44:25;;;;;;;9.38;5.10;;;20.50;47.70;;;;;;5096223;28;20028;-62
2021/05/28 10:46:53;;;;;;;8.60;4.80;;;20.50;47.70;;;;;;5096767;28;20031;-62
2021/05/28 10:49:34;;;;;;;10.95;5.85;;;20.60;47.60;;;;;;5096540;28;20044;-62
2021/05/28 10:52:01;;;;;;;8.85;4.97;;;20.60;47.60;;;;;;5096350;28;20038;-61
2021/05/28 10:54:28;;;;;;;9.57;5.40;;;20.60;47.50;;;;;;5096292;28;20028;-61
2021/05/28 10:56:54;;;;;;;9.88;5.70;;;20.70;47.50;;;;;;5096157;28;20024;-62
2021/05/28 10:59:21;;;;;;;9.52;5.00;;;20.70;47.50;;;;;;5095574;28;20034;-63
2021/05/28 11:01:51;;;;;;;12.40;6.13;;;20.70;47.50;;;;;;5094377;28;20028;-63
2021/05/28 11:04:27;;;;;;;8.68;4.55;;;20.80;47.20;;;;;;5096314;28;20053;-62
2021/05/28 11:06:55;;;;;;;8.98;5.38;;;20.80;47.20;;;;;;5095835;28;20110;-64
2021/05/28 11:09:47;;;;;;;9.65;5.60;;;20.80;47.30;;;;;;5095818;28;20388;-61
2021/05/28 11:12:35;;;;;;;9.68;4.88;;;20.90;47.30;;;;;;5095406;28;20020;-62
2021/05/28 11:15:07;;;;;;;10.20;4.90;;;20.90;47.30;;;;;;5087022;28;20036;-62
2021/05/28 11:17:49;;;;;;;9.60;5.00;;;20.80;47.30;;;;;;5095445;28;20016;-64
2021/05/28 11:20:23;;;;;;;8.40;4.50;;;20.90;47.30;;;;;;5095227;28;20020;-63
2021/05/28 11:22:48;;;;;;;9.70;4.65;;;20.90;47.40;;;;;;5094908;28;20133;-61
2021/05/28 11:25:14;;;;;;;8.57;4.70;;;21.00;47.30;;;;;;5094568;28;20399;-62
2021/05/28 11:27:41;;;;;;;8.48;4.95;;;21.00;47.30;;;;;;5095050;28;20111;-63
2021/05/28 11:30:07;;;;;;;10.82;5.35;;;21.00;47.30;;;;;;5093562;28;20408;-62
2021/05/28 11:32:45;;;;;;;10.60;5.40;;;21.10;47.40;;;;;;5095295;28;20016;-62
2021/05/28 11:35:15;;;;;;;10.45;5.35;;;21.10;47.40;;;;;;5095120;28;20023;-62
2021/05/28 11:38:01;;;;;;;11.13;4.72;;;21.10;47.50;;;;;;5093967;28;20025;-63
2021/05/28 11:40:30;;;;;;;8.55;4.78;;;21.10;47.40;;;;;;5095074;28;20024;-63
2021/05/28 11:43:34;;;;;;;9.35;4.63;;;21.20;47.40;;;;;;5095724;28;20024;-63
2021/05/28 11:45:59;;;;;;;9.77;4.65;;;21.20;47.40;;;;;;5062934;28;20040;-62
2021/05/28 11:48:27;;;;;;;8.38;4.75;;;21.20;47.40;;;;;;5094633;28;20107;-61
2021/05/28 11:50:58;;;;;;;8.02;4.78;;;21.20;47.40;;;;;;5095158;28;20082;-62
2021/05/28 11:53:30;;;;;;;9.73;4.90;;;21.30;47.40;;;;;;5094614;28;20042;-62
2021/05/28 11:55:56;;;;;;;8.80;4.80;;;21.40;47.30;;;;;;5092547;28;20494;-64
2021/05/28 11:58:24;;;;;;;8.93;4.63;;;21.40;47.30;;;;;;5092504;28;20111;-62
2021/05/28 12:00:52;;;;;;;9.75;4.70;;;21.50;47.20;;;;;;5093187;28;20091;-62
2021/05/28 12:03:19;;;;;;;8.63;4.70;;;21.50;47.20;;;;;;5094564;28;20028;-61
2021/05/28 12:05:46;;;;;;;8.60;4.43;;;21.50;47.10;;;;;;5092974;28;20028;-62
2021/05/28 12:08:11;;;;;;;9.07;4.93;;;21.50;47.10;;;;;;5094559;28;20126;-62
2021/05/28 12:10:42;;;;;;;8.75;5.28;;;21.60;47.10;;;;;;5092844;28;20103;-62
2021/05/28 12:13:08;;;;;;;8.75;4.68;;;21.70;47.00;;;;;;5094945;28;20028;-61
2021/05/28 12:15:46;;;;;;;8.38;4.18;;;21.80;46.90;;;;;;5094367;28;20032;-61
2021/05/28 12:18:20;;;;;;;8.10;4.57;;;21.80;46.80;;;;;;5094515;28;20027;-62
2021/05/28 12:20:55;;;;;;;9.77;5.03;;;21.90;46.80;;;;;;5094715;28;20028;-63
2021/05/28 12:23:23;;;;;;;7.47;4.20;;;21.90;46.90;;;;;;5092292;28;20055;-63
2021/05/28 12:25:52;;;;;;;8.93;4.57;;;21.90;46.90;;;;;;5093202;28;20028;-64
2021/05/28 12:28:32;;;;;;;9.13;4.70;;;22.00;46.70;;;;;;5091082;28;20020;-64
2021/05/28 12:31:02;;;;;;;7.40;4.18;;;22.10;46.50;;;;;;5093977;28;20056;-62
2021/05/28 12:33:31;;;;;;;7.75;4.25;;;22.20;46.10;;;;;;5092964;28;20050;-62
2021/05/28 12:36:00;;;;;;;9.02;4.85;;;22.10;46.20;;;;;;5089779;28;20106;-62
2021/05/28 12:38:36;;;;;;;9.15;4.68;;;22.10;46.20;;;;;;5081404;28;20020;-62
2021/05/28 12:41:02;;;;;;;7.68;4.38;;;22.20;46.20;;;;;;5075689;28;20029;-62
2021/05/28 12:43:31;;;;;;;8.55;4.05;;;22.20;46.10;;;;;;5072239;28;20108;-62